sensor_id;sensor_type;location;lat;lon;timestamp;P1;durP1;ratioP1;P2;durP2;ratioP2
2187;SDS011;1100;52.014;8.540;2023-02-01T00:01:54;13.77;;;1.20;;
2187;SDS011;1100;52.014;8.540;2023-02-01T00:04:20;16.08;;;2.22;;
2187;SDS011;1100;52.014;8.540;2023-02-01T00:06:46;9.23;;;0.97;;
2187;SDS011;1100;52.014;8.540;2023-02-01T00:09:12;15.60;;;1.20;;
2187;SDS011;1100;52.014;8.540;2023-02-01T00:11:38;11.77;;;1.17;;
2187;SDS011;1100;52.014;8.540;2023-02-01T00:14:03;15.53;;;1.90;;
2187;SDS011;1100;52.014;8.540;2023-02-01T00:16:29;10.65;;;1.40;;
2187;SDS011;1100;52.014;8.540;2023-02-01T00:18:59;11.60;;;1.23;;
2187;SDS011;1100;52.014;8.540;2023-02-01T00:21:27;14.37;;;1.93;;
2187;SDS011;1100;52.014;8.540;2023-02-01T00:23:53;12.07;;;1.40;;
2187;SDS011;1100;52.014;8.540;2023-02-01T00:26:19;19.73;;;1.40;;
2187;SDS011;1100;52.014;8.540;2023-02-01T00:28:50;11.18;;;1.15;;
2187;SDS011;1100;52.014;8.540;2023-02-01T00:31:16;12.77;;;1.20;;
2187;SDS011;1100;52.014;8.540;2023-02-01T00:33:41;9.73;;;1.30;;
2187;SDS011;1100;52.014;8.540;2023-02-01T00:36:07;9.77;;;1.10;;
2187;SDS011;1100;52.014;8.540;2023-02-01T00:38:35;9.70;;;1.00;;
2187;SDS011;1100;52.014;8.540;2023-02-01T00:41:03;13.20;;;1.90;;
2187;SDS011;1100;52.014;8.540;2023-02-01T00:43:33;9.10;;;1.65;;
2187;SDS011;1100;52.014;8.540;2023-02-01T00:45:59;13.75;;;1.23;;
2187;SDS011;1100;52.014;8.540;2023-02-01T00:48:25;14.63;;;1.53;;
2187;SDS011;1100;52.014;8.540;2023-02-01T00:50:50;17.27;;;1.77;;
2187;SDS011;1100;52.014;8.540;2023-02-01T00:53:16;14.10;;;1.30;;
2187;SDS011;1100;52.014;8.540;2023-02-01T00:55:44;9.93;;;1.00;;
2187;SDS011;1100;52.014;8.540;2023-02-01T00:58:10;16.13;;;1.33;;
2187;SDS011;1100;52.014;8.540;2023-02-01T01:00:35;14.48;;;1.63;;
2187;SDS011;1100;52.014;8.540;2023-02-01T01:03:01;16.10;;;1.50;;
2187;SDS011;1100;52.014;8.540;2023-02-01T01:05:26;16.20;;;1.70;;
2187;SDS011;1100;52.014;8.540;2023-02-01T01:07:54;15.07;;;1.83;;
2187;SDS011;1100;52.014;8.540;2023-02-01T01:10:20;15.00;;;1.20;;
2187;SDS011;1100;52.014;8.540;2023-02-01T01:12:45;8.97;;;1.03;;
2187;SDS011;1100;52.014;8.540;2023-02-01T01:15:11;13.65;;;1.23;;
2187;SDS011;1100;52.014;8.540;2023-02-01T01:17:36;10.53;;;1.23;;
2187;SDS011;1100;52.014;8.540;2023-02-01T01:20:02;10.30;;;1.30;;
2187;SDS011;1100;52.014;8.540;2023-02-01T01:22:28;10.27;;;1.10;;
2187;SDS011;1100;52.014;8.540;2023-02-01T01:24:53;10.17;;;1.40;;
2187;SDS011;1100;52.014;8.540;2023-02-01T01:27:18;11.83;;;1.40;;
2187;SDS011;1100;52.014;8.540;2023-02-01T01:29:48;12.15;;;1.58;;
2187;SDS011;1100;52.014;8.540;2023-02-01T01:32:14;12.57;;;1.57;;
2187;SDS011;1100;52.014;8.540;2023-02-01T01:34:39;16.77;;;1.73;;
2187;SDS011;1100;52.014;8.540;2023-02-01T01:37:04;17.60;;;1.83;;
2187;SDS011;1100;52.014;8.540;2023-02-01T01:39:30;10.63;;;1.70;;
2187;SDS011;1100;52.014;8.540;2023-02-01T01:41:55;11.30;;;1.40;;
2187;SDS011;1100;52.014;8.540;2023-02-01T01:47:24;13.80;;;1.50;;
2187;SDS011;1100;52.014;8.540;2023-02-01T01:49:51;15.27;;;1.63;;
2187;SDS011;1100;52.014;8.540;2023-02-01T01:52:17;9.85;;;1.42;;
2187;SDS011;1100;52.014;8.540;2023-02-01T01:54:44;15.40;;;2.43;;
2187;SDS011;1100;52.014;8.540;2023-02-01T01:57:14;12.05;;;1.85;;
2187;SDS011;1100;52.014;8.540;2023-02-01T01:59:46;17.40;;;1.75;;
2187;SDS011;1100;52.014;8.540;2023-02-01T02:02:15;18.58;;;1.70;;
2187;SDS011;1100;52.014;8.540;2023-02-01T02:04:41;12.63;;;1.40;;
2187;SDS011;1100;52.014;8.540;2023-02-01T02:07:21;12.60;;;1.37;;
2187;SDS011;1100;52.014;8.540;2023-02-01T02:09:49;12.18;;;1.70;;
2187;SDS011;1100;52.014;8.540;2023-02-01T02:12:16;13.60;;;1.55;;
2187;SDS011;1100;52.014;8.540;2023-02-01T02:14:41;14.60;;;2.10;;
2187;SDS011;1100;52.014;8.540;2023-02-01T02:25:38;19.63;;;2.60;;
2187;SDS011;1100;52.014;8.540;2023-02-01T02:28:38;13.80;;;1.70;;
2187;SDS011;1100;52.014;8.540;2023-02-01T02:45:07;13.48;;;1.55;;
2187;SDS011;1100;52.014;8.540;2023-02-01T02:47:55;9.73;;;1.52;;
2187;SDS011;1100;52.014;8.540;2023-02-01T02:53:33;16.85;;;1.52;;
2187;SDS011;1100;52.014;8.540;2023-02-01T02:56:21;15.43;;;1.57;;
2187;SDS011;1100;52.014;8.540;2023-02-01T02:59:08;13.05;;;2.53;;
2187;SDS011;1100;52.014;8.540;2023-02-01T03:01:56;15.80;;;1.40;;
2187;SDS011;1100;52.014;8.540;2023-02-01T03:04:40;11.73;;;1.27;;
2187;SDS011;1100;52.014;8.540;2023-02-01T03:07:11;13.40;;;1.63;;
2187;SDS011;1100;52.014;8.540;2023-02-01T03:09:59;12.75;;;1.75;;
2187;SDS011;1100;52.014;8.540;2023-02-01T03:12:30;16.93;;;1.93;;
2187;SDS011;1100;52.014;8.540;2023-02-01T03:15:21;15.63;;;1.50;;
2187;SDS011;1100;52.014;8.540;2023-02-01T03:17:51;15.30;;;2.22;;
2187;SDS011;1100;52.014;8.540;2023-02-01T03:20:20;12.02;;;1.25;;
2187;SDS011;1100;52.014;8.540;2023-02-01T03:22:48;10.95;;;1.23;;
2187;SDS011;1100;52.014;8.540;2023-02-01T03:25:19;11.40;;;1.27;;
2187;SDS011;1100;52.014;8.540;2023-02-01T03:27:49;13.40;;;1.35;;
2187;SDS011;1100;52.014;8.540;2023-02-01T03:32:51;9.02;;;1.20;;
2187;SDS011;1100;52.014;8.540;2023-02-01T03:37:52;11.70;;;0.97;;
2187;SDS011;1100;52.014;8.540;2023-02-01T03:40:28;13.80;;;1.13;;
2187;SDS011;1100;52.014;8.540;2023-02-01T03:42:59;14.98;;;1.25;;
2187;SDS011;1100;52.014;8.540;2023-02-01T03:45:31;14.38;;;1.70;;
2187;SDS011;1100;52.014;8.540;2023-02-01T03:48:02;13.68;;;1.25;;
2187;SDS011;1100;52.014;8.540;2023-02-01T03:50:28;12.05;;;1.13;;
2187;SDS011;1100;52.014;8.540;2023-02-01T03:52:59;14.97;;;1.20;;
2187;SDS011;1100;52.014;8.540;2023-02-01T03:55:30;10.60;;;0.93;;
2187;SDS011;1100;52.014;8.540;2023-02-01T04:00:53;9.50;;;1.00;;
2187;SDS011;1100;52.014;8.540;2023-02-01T04:03:20;9.25;;;0.88;;
2187;SDS011;1100;52.014;8.540;2023-02-01T04:05:47;9.63;;;1.00;;
2187;SDS011;1100;52.014;8.540;2023-02-01T04:08:15;15.10;;;2.05;;
2187;SDS011;1100;52.014;8.540;2023-02-01T04:10:40;12.93;;;1.05;;
2187;SDS011;1100;52.014;8.540;2023-02-01T04:13:06;12.60;;;1.60;;
2187;SDS011;1100;52.014;8.540;2023-02-01T04:15:31;15.33;;;1.23;;
2187;SDS011;1100;52.014;8.540;2023-02-01T04:17:57;12.63;;;1.20;;
2187;SDS011;1100;52.014;8.540;2023-02-01T04:20:22;7.33;;;1.30;;
2187;SDS011;1100;52.014;8.540;2023-02-01T04:22:48;10.30;;;1.10;;
2187;SDS011;1100;52.014;8.540;2023-02-01T04:25:13;12.30;;;1.10;;
2187;SDS011;1100;52.014;8.540;2023-02-01T04:27:38;11.70;;;1.20;;
2187;SDS011;1100;52.014;8.540;2023-02-01T04:30:04;13.40;;;1.73;;
2187;SDS011;1100;52.014;8.540;2023-02-01T04:32:30;12.07;;;1.13;;
2187;SDS011;1100;52.014;8.540;2023-02-01T04:34:55;11.32;;;1.45;;
2187;SDS011;1100;52.014;8.540;2023-02-01T04:37:21;9.60;;;1.53;;
2187;SDS011;1100;52.014;8.540;2023-02-01T04:39:46;13.93;;;1.70;;
2187;SDS011;1100;52.014;8.540;2023-02-01T04:42:11;14.10;;;1.60;;
2187;SDS011;1100;52.014;8.540;2023-02-01T04:44:37;14.00;;;1.30;;
2187;SDS011;1100;52.014;8.540;2023-02-01T04:47:04;11.33;;;0.90;;
2187;SDS011;1100;52.014;8.540;2023-02-01T04:49:30;13.48;;;1.27;;
2187;SDS011;1100;52.014;8.540;2023-02-01T04:51:58;13.43;;;1.40;;
2187;SDS011;1100;52.014;8.540;2023-02-01T04:54:24;12.43;;;2.13;;
2187;SDS011;1100;52.014;8.540;2023-02-01T04:56:53;13.48;;;1.33;;
2187;SDS011;1100;52.014;8.540;2023-02-01T04:59:18;10.38;;;1.13;;
2187;SDS011;1100;52.014;8.540;2023-02-01T05:01:46;10.70;;;1.33;;
2187;SDS011;1100;52.014;8.540;2023-02-01T05:04:11;15.05;;;1.38;;
2187;SDS011;1100;52.014;8.540;2023-02-01T05:06:36;11.47;;;1.00;;
2187;SDS011;1100;52.014;8.540;2023-02-01T05:09:02;17.87;;;1.67;;
2187;SDS011;1100;52.014;8.540;2023-02-01T05:11:27;16.37;;;1.40;;
2187;SDS011;1100;52.014;8.540;2023-02-01T05:14:11;9.43;;;0.90;;
2187;SDS011;1100;52.014;8.540;2023-02-01T05:16:36;11.30;;;1.37;;
2187;SDS011;1100;52.014;8.540;2023-02-01T05:19:01;14.87;;;1.30;;
2187;SDS011;1100;52.014;8.540;2023-02-01T05:21:27;9.40;;;1.15;;
2187;SDS011;1100;52.014;8.540;2023-02-01T05:23:52;12.83;;;1.33;;
2187;SDS011;1100;52.014;8.540;2023-02-01T05:26:37;16.92;;;1.42;;
2187;SDS011;1100;52.014;8.540;2023-02-01T05:29:04;7.83;;;1.47;;
2187;SDS011;1100;52.014;8.540;2023-02-01T05:31:30;13.93;;;1.48;;
2187;SDS011;1100;52.014;8.540;2023-02-01T05:33:55;17.27;;;1.73;;
2187;SDS011;1100;52.014;8.540;2023-02-01T05:36:21;12.48;;;1.38;;
2187;SDS011;1100;52.014;8.540;2023-02-01T05:38:46;15.10;;;1.13;;
2187;SDS011;1100;52.014;8.540;2023-02-01T05:41:11;13.93;;;1.40;;
2187;SDS011;1100;52.014;8.540;2023-02-01T05:43:37;14.03;;;1.60;;
2187;SDS011;1100;52.014;8.540;2023-02-01T05:46:02;12.80;;;1.20;;
2187;SDS011;1100;52.014;8.540;2023-02-01T05:48:28;16.20;;;1.70;;
2187;SDS011;1100;52.014;8.540;2023-02-01T05:50:53;14.87;;;1.40;;
2187;SDS011;1100;52.014;8.540;2023-02-01T05:53:18;11.97;;;1.03;;
2187;SDS011;1100;52.014;8.540;2023-02-01T05:55:44;14.60;;;1.50;;
2187;SDS011;1100;52.014;8.540;2023-02-01T05:58:12;13.73;;;1.30;;
2187;SDS011;1100;52.014;8.540;2023-02-01T06:00:38;10.40;;;1.40;;
2187;SDS011;1100;52.014;8.540;2023-02-01T06:03:04;10.75;;;1.40;;
2187;SDS011;1100;52.014;8.540;2023-02-01T06:05:29;12.57;;;1.20;;
2187;SDS011;1100;52.014;8.540;2023-02-01T06:07:54;12.50;;;1.40;;
2187;SDS011;1100;52.014;8.540;2023-02-01T06:10:22;11.80;;;2.00;;
2187;SDS011;1100;52.014;8.540;2023-02-01T06:12:48;13.20;;;1.10;;
2187;SDS011;1100;52.014;8.540;2023-02-01T06:15:13;13.10;;;1.33;;
2187;SDS011;1100;52.014;8.540;2023-02-01T06:17:43;15.18;;;1.83;;
2187;SDS011;1100;52.014;8.540;2023-02-01T06:20:10;16.10;;;1.77;;
2187;SDS011;1100;52.014;8.540;2023-02-01T06:22:37;14.20;;;1.63;;
2187;SDS011;1100;52.014;8.540;2023-02-01T06:25:03;15.17;;;2.10;;
2187;SDS011;1100;52.014;8.540;2023-02-01T06:27:30;13.77;;;2.00;;
2187;SDS011;1100;52.014;8.540;2023-02-01T06:29:56;19.80;;;2.72;;
2187;SDS011;1100;52.014;8.540;2023-02-01T06:32:22;10.63;;;1.60;;
2187;SDS011;1100;52.014;8.540;2023-02-01T06:34:48;12.00;;;1.40;;
2187;SDS011;1100;52.014;8.540;2023-02-01T06:37:14;15.77;;;1.70;;
2187;SDS011;1100;52.014;8.540;2023-02-01T06:39:39;9.57;;;1.77;;
2187;SDS011;1100;52.014;8.540;2023-02-01T06:42:04;14.73;;;1.20;;
2187;SDS011;1100;52.014;8.540;2023-02-01T06:44:30;10.90;;;1.20;;
2187;SDS011;1100;52.014;8.540;2023-02-01T06:46:55;12.23;;;1.57;;
2187;SDS011;1100;52.014;8.540;2023-02-01T06:49:20;16.60;;;1.27;;
2187;SDS011;1100;52.014;8.540;2023-02-01T06:51:46;11.13;;;1.45;;
2187;SDS011;1100;52.014;8.540;2023-02-01T06:54:11;17.23;;;1.43;;
2187;SDS011;1100;52.014;8.540;2023-02-01T06:56:38;12.05;;;1.30;;
2187;SDS011;1100;52.014;8.540;2023-02-01T06:59:07;15.97;;;1.73;;
2187;SDS011;1100;52.014;8.540;2023-02-01T07:01:32;14.52;;;1.45;;
2187;SDS011;1100;52.014;8.540;2023-02-01T07:03:58;15.88;;;1.77;;
2187;SDS011;1100;52.014;8.540;2023-02-01T07:06:24;14.77;;;1.40;;
2187;SDS011;1100;52.014;8.540;2023-02-01T07:08:50;19.02;;;1.20;;
2187;SDS011;1100;52.014;8.540;2023-02-01T07:11:16;11.33;;;0.90;;
2187;SDS011;1100;52.014;8.540;2023-02-01T07:13:42;16.60;;;2.03;;
2187;SDS011;1100;52.014;8.540;2023-02-01T07:16:09;13.53;;;1.37;;
2187;SDS011;1100;52.014;8.540;2023-02-01T07:18:36;16.90;;;1.38;;
2187;SDS011;1100;52.014;8.540;2023-02-01T07:21:02;11.30;;;1.33;;
2187;SDS011;1100;52.014;8.540;2023-02-01T07:23:27;17.67;;;1.48;;
2187;SDS011;1100;52.014;8.540;2023-02-01T07:25:57;15.37;;;1.60;;
2187;SDS011;1100;52.014;8.540;2023-02-01T07:28:24;9.10;;;1.35;;
2187;SDS011;1100;52.014;8.540;2023-02-01T07:30:50;13.10;;;1.60;;
2187;SDS011;1100;52.014;8.540;2023-02-01T07:33:19;17.35;;;1.52;;
2187;SDS011;1100;52.014;8.540;2023-02-01T07:35:46;11.00;;;1.25;;
2187;SDS011;1100;52.014;8.540;2023-02-01T07:38:12;12.13;;;1.50;;
2187;SDS011;1100;52.014;8.540;2023-02-01T07:40:37;20.10;;;1.80;;
2187;SDS011;1100;52.014;8.540;2023-02-01T07:43:02;12.40;;;1.17;;
2187;SDS011;1100;52.014;8.540;2023-02-01T07:45:30;12.80;;;1.20;;
2187;SDS011;1100;52.014;8.540;2023-02-01T07:47:56;14.27;;;1.20;;
2187;SDS011;1100;52.014;8.540;2023-02-01T07:50:21;13.47;;;1.97;;
2187;SDS011;1100;52.014;8.540;2023-02-01T07:52:46;18.00;;;1.47;;
2187;SDS011;1100;52.014;8.540;2023-02-01T07:55:12;14.40;;;1.67;;
2187;SDS011;1100;52.014;8.540;2023-02-01T07:57:37;12.90;;;1.40;;
2187;SDS011;1100;52.014;8.540;2023-02-01T08:00:02;13.47;;;2.33;;
2187;SDS011;1100;52.014;8.540;2023-02-01T08:02:47;11.77;;;1.75;;
2187;SDS011;1100;52.014;8.540;2023-02-01T08:05:12;13.50;;;1.63;;
2187;SDS011;1100;52.014;8.540;2023-02-01T08:07:38;12.13;;;1.50;;
2187;SDS011;1100;52.014;8.540;2023-02-01T08:10:03;11.43;;;1.50;;
2187;SDS011;1100;52.014;8.540;2023-02-01T08:12:30;13.43;;;1.63;;
2187;SDS011;1100;52.014;8.540;2023-02-01T08:14:55;11.93;;;1.63;;
2187;SDS011;1100;52.014;8.540;2023-02-01T08:17:21;12.03;;;2.00;;
2187;SDS011;1100;52.014;8.540;2023-02-01T08:19:46;13.63;;;1.30;;
2187;SDS011;1100;52.014;8.540;2023-02-01T08:22:12;15.87;;;1.47;;
2187;SDS011;1100;52.014;8.540;2023-02-01T08:24:37;14.07;;;2.33;;
2187;SDS011;1100;52.014;8.540;2023-02-01T08:27:06;12.27;;;1.45;;
2187;SDS011;1100;52.014;8.540;2023-02-01T08:29:32;10.50;;;2.43;;
2187;SDS011;1100;52.014;8.540;2023-02-01T08:31:57;17.25;;;1.95;;
2187;SDS011;1100;52.014;8.540;2023-02-01T08:34:22;16.30;;;1.80;;
2187;SDS011;1100;52.014;8.540;2023-02-01T08:36:48;12.87;;;1.23;;
2187;SDS011;1100;52.014;8.540;2023-02-01T08:39:14;11.97;;;1.83;;
2187;SDS011;1100;52.014;8.540;2023-02-01T08:41:39;11.80;;;1.30;;
2187;SDS011;1100;52.014;8.540;2023-02-01T08:44:07;16.95;;;1.73;;
2187;SDS011;1100;52.014;8.540;2023-02-01T08:46:32;14.67;;;1.73;;
2187;SDS011;1100;52.014;8.540;2023-02-01T08:48:58;14.50;;;2.38;;
2187;SDS011;1100;52.014;8.540;2023-02-01T08:51:24;16.10;;;2.00;;
2187;SDS011;1100;52.014;8.540;2023-02-01T08:53:49;11.18;;;1.88;;
2187;SDS011;1100;52.014;8.540;2023-02-01T08:56:15;16.37;;;2.40;;
2187;SDS011;1100;52.014;8.540;2023-02-01T08:58:41;18.35;;;2.30;;
2187;SDS011;1100;52.014;8.540;2023-02-01T09:01:07;17.93;;;2.10;;
2187;SDS011;1100;52.014;8.540;2023-02-01T09:03:34;15.90;;;2.10;;
2187;SDS011;1100;52.014;8.540;2023-02-01T09:06:03;11.90;;;1.90;;
2187;SDS011;1100;52.014;8.540;2023-02-01T09:08:31;10.20;;;1.42;;
2187;SDS011;1100;52.014;8.540;2023-02-01T09:11:00;12.00;;;2.05;;
2187;SDS011;1100;52.014;8.540;2023-02-01T09:13:27;14.10;;;1.58;;
2187;SDS011;1100;52.014;8.540;2023-02-01T09:15:52;13.93;;;2.50;;
2187;SDS011;1100;52.014;8.540;2023-02-01T09:18:17;13.27;;;1.60;;
2187;SDS011;1100;52.014;8.540;2023-02-01T09:20:43;16.37;;;1.73;;
2187;SDS011;1100;52.014;8.540;2023-02-01T09:23:08;14.97;;;1.80;;
2187;SDS011;1100;52.014;8.540;2023-02-01T09:25:34;16.67;;;1.92;;
2187;SDS011;1100;52.014;8.540;2023-02-01T09:27:59;17.90;;;2.00;;
2187;SDS011;1100;52.014;8.540;2023-02-01T09:30:24;14.80;;;1.60;;
2187;SDS011;1100;52.014;8.540;2023-02-01T09:32:50;13.63;;;1.67;;
2187;SDS011;1100;52.014;8.540;2023-02-01T09:35:15;11.70;;;1.33;;
2187;SDS011;1100;52.014;8.540;2023-02-01T09:37:41;13.55;;;2.25;;
2187;SDS011;1100;52.014;8.540;2023-02-01T09:40:06;13.83;;;1.43;;
2187;SDS011;1100;52.014;8.540;2023-02-01T09:48:00;11.60;;;2.03;;
2187;SDS011;1100;52.014;8.540;2023-02-01T09:50:33;15.10;;;1.37;;
2187;SDS011;1100;52.014;8.540;2023-02-01T09:53:06;14.07;;;1.92;;
2187;SDS011;1100;52.014;8.540;2023-02-01T09:55:43;9.70;;;0.98;;
2187;SDS011;1100;52.014;8.540;2023-02-01T10:00:53;14.80;;;1.95;;
2187;SDS011;1100;52.014;8.540;2023-02-01T10:03:23;15.83;;;1.80;;
2187;SDS011;1100;52.014;8.540;2023-02-01T10:06:01;17.17;;;1.45;;
2187;SDS011;1100;52.014;8.540;2023-02-01T10:14:04;14.30;;;1.40;;
2187;SDS011;1100;52.014;8.540;2023-02-01T10:16:47;12.27;;;1.07;;
2187;SDS011;1100;52.014;8.540;2023-02-01T10:25:04;12.40;;;1.63;;
2187;SDS011;1100;52.014;8.540;2023-02-01T10:29:43;13.57;;;2.07;;
2187;SDS011;1100;52.014;8.540;2023-02-01T10:32:15;12.63;;;1.50;;
2187;SDS011;1100;52.014;8.540;2023-02-01T10:34:44;14.45;;;1.63;;
2187;SDS011;1100;52.014;8.540;2023-02-01T10:37:33;14.35;;;1.25;;
2187;SDS011;1100;52.014;8.540;2023-02-01T10:40:14;9.98;;;1.80;;
2187;SDS011;1100;52.014;8.540;2023-02-01T10:42:46;11.63;;;1.83;;
2187;SDS011;1100;52.014;8.540;2023-02-01T10:45:21;11.27;;;1.60;;
2187;SDS011;1100;52.014;8.540;2023-02-01T10:47:50;11.75;;;1.75;;
2187;SDS011;1100;52.014;8.540;2023-02-01T10:53:24;10.93;;;1.92;;
2187;SDS011;1100;52.014;8.540;2023-02-01T10:56:09;16.03;;;2.10;;
2187;SDS011;1100;52.014;8.540;2023-02-01T10:58:36;16.35;;;2.63;;
2187;SDS011;1100;52.014;8.540;2023-02-01T11:01:09;11.88;;;1.73;;
2187;SDS011;1100;52.014;8.540;2023-02-01T11:03:43;9.05;;;1.30;;
2187;SDS011;1100;52.014;8.540;2023-02-01T11:06:21;12.77;;;1.63;;
2187;SDS011;1100;52.014;8.540;2023-02-01T11:08:49;18.43;;;1.83;;
2187;SDS011;1100;52.014;8.540;2023-02-01T11:11:16;11.88;;;1.70;;
2187;SDS011;1100;52.014;8.540;2023-02-01T11:13:41;9.60;;;1.50;;
2187;SDS011;1100;52.014;8.540;2023-02-01T11:16:10;13.07;;;1.25;;
2187;SDS011;1100;52.014;8.540;2023-02-01T11:18:37;11.43;;;1.48;;
2187;SDS011;1100;52.014;8.540;2023-02-01T11:21:04;12.47;;;1.80;;
2187;SDS011;1100;52.014;8.540;2023-02-01T11:23:31;15.05;;;1.83;;
2187;SDS011;1100;52.014;8.540;2023-02-01T11:26:02;10.82;;;2.20;;
2187;SDS011;1100;52.014;8.540;2023-02-01T11:28:35;13.50;;;1.95;;
2187;SDS011;1100;52.014;8.540;2023-02-01T11:31:05;9.00;;;1.77;;
2187;SDS011;1100;52.014;8.540;2023-02-01T11:33:35;13.50;;;1.47;;
2187;SDS011;1100;52.014;8.540;2023-02-01T11:36:13;14.75;;;1.80;;
2187;SDS011;1100;52.014;8.540;2023-02-01T11:38:51;12.65;;;1.60;;
2187;SDS011;1100;52.014;8.540;2023-02-01T11:41:41;15.55;;;1.90;;
2187;SDS011;1100;52.014;8.540;2023-02-01T11:49:52;11.43;;;1.58;;
2187;SDS011;1100;52.014;8.540;2023-02-01T12:09:21;11.65;;;1.70;;
2187;SDS011;1100;52.014;8.540;2023-02-01T12:11:58;15.88;;;2.30;;
2187;SDS011;1100;52.014;8.540;2023-02-01T12:19:48;9.03;;;1.47;;
2187;SDS011;1100;52.014;8.540;2023-02-01T12:36:29;13.70;;;2.42;;
2187;SDS011;1100;52.014;8.540;2023-02-01T12:44:32;10.02;;;2.10;;
2187;SDS011;1100;52.014;8.540;2023-02-01T12:48:06;13.70;;;2.47;;
2187;SDS011;1100;52.014;8.540;2023-02-01T12:50:58;12.85;;;3.17;;
2187;SDS011;1100;52.014;8.540;2023-02-01T12:53:22;10.82;;;2.60;;
2187;SDS011;1100;52.014;8.540;2023-02-01T12:55:53;13.30;;;2.60;;
2187;SDS011;1100;52.014;8.540;2023-02-01T13:00:57;14.90;;;2.93;;
2187;SDS011;1100;52.014;8.540;2023-02-01T13:11:22;15.40;;;2.85;;
2187;SDS011;1100;52.014;8.540;2023-02-01T13:13:59;12.83;;;2.80;;
2187;SDS011;1100;52.014;8.540;2023-02-01T13:16:31;15.20;;;3.10;;
2187;SDS011;1100;52.014;8.540;2023-02-01T13:19:13;12.30;;;3.08;;
2187;SDS011;1100;52.014;8.540;2023-02-01T13:21:46;19.17;;;3.40;;
2187;SDS011;1100;52.014;8.540;2023-02-01T13:24:58;19.10;;;2.78;;
2187;SDS011;1100;52.014;8.540;2023-02-01T13:27:16;14.37;;;3.00;;
2187;SDS011;1100;52.014;8.540;2023-02-01T13:32:42;13.30;;;2.70;;
2187;SDS011;1100;52.014;8.540;2023-02-01T13:37:58;13.65;;;2.53;;
2187;SDS011;1100;52.014;8.540;2023-02-01T13:40:35;12.80;;;2.20;;
2187;SDS011;1100;52.014;8.540;2023-02-01T13:43:05;14.50;;;2.30;;
2187;SDS011;1100;52.014;8.540;2023-02-01T13:45:45;12.73;;;2.65;;
2187;SDS011;1100;52.014;8.540;2023-02-01T13:48:31;13.93;;;2.50;;
2187;SDS011;1100;52.014;8.540;2023-02-01T13:50:58;13.15;;;2.70;;
2187;SDS011;1100;52.014;8.540;2023-02-01T13:53:29;14.10;;;2.67;;
2187;SDS011;1100;52.014;8.540;2023-02-01T13:56:00;10.77;;;2.47;;
2187;SDS011;1100;52.014;8.540;2023-02-01T14:03:45;14.70;;;2.55;;
2187;SDS011;1100;52.014;8.540;2023-02-01T14:11:32;12.20;;;1.77;;
2187;SDS011;1100;52.014;8.540;2023-02-01T14:19:22;11.88;;;2.42;;
2187;SDS011;1100;52.014;8.540;2023-02-01T14:21:50;9.73;;;1.45;;
2187;SDS011;1100;52.014;8.540;2023-02-01T14:24:25;12.97;;;1.63;;
2187;SDS011;1100;52.014;8.540;2023-02-01T14:27:19;7.40;;;1.65;;
2187;SDS011;1100;52.014;8.540;2023-02-01T14:29:51;5.60;;;1.08;;
2187;SDS011;1100;52.014;8.540;2023-02-01T14:32:41;5.97;;;1.10;;
2187;SDS011;1100;52.014;8.540;2023-02-01T14:35:18;5.07;;;0.60;;
2187;SDS011;1100;52.014;8.540;2023-02-01T14:37:46;4.73;;;0.50;;
2187;SDS011;1100;52.014;8.540;2023-02-01T14:40:23;7.10;;;0.80;;
2187;SDS011;1100;52.014;8.540;2023-02-01T14:42:51;4.60;;;0.47;;
2187;SDS011;1100;52.014;8.540;2023-02-01T14:50:27;5.47;;;0.83;;
2187;SDS011;1100;52.014;8.540;2023-02-01T15:00:57;5.10;;;0.80;;
2187;SDS011;1100;52.014;8.540;2023-02-01T15:03:30;5.77;;;0.80;;
2187;SDS011;1100;52.014;8.540;2023-02-01T15:06:13;5.78;;;0.90;;
2187;SDS011;1100;52.014;8.540;2023-02-01T15:08:46;8.00;;;1.02;;
2187;SDS011;1100;52.014;8.540;2023-02-01T15:11:14;8.60;;;0.90;;
2187;SDS011;1100;52.014;8.540;2023-02-01T15:13:47;8.38;;;1.02;;
2187;SDS011;1100;52.014;8.540;2023-02-01T15:16:14;11.73;;;1.00;;
2187;SDS011;1100;52.014;8.540;2023-02-01T15:18:41;10.40;;;1.02;;
2187;SDS011;1100;52.014;8.540;2023-02-01T15:21:13;7.80;;;1.20;;
2187;SDS011;1100;52.014;8.540;2023-02-01T15:23:42;10.15;;;1.77;;
2187;SDS011;1100;52.014;8.540;2023-02-01T15:26:07;6.27;;;1.03;;
2187;SDS011;1100;52.014;8.540;2023-02-01T15:28:33;11.50;;;1.30;;
2187;SDS011;1100;52.014;8.540;2023-02-01T15:30:59;10.13;;;0.90;;
2187;SDS011;1100;52.014;8.540;2023-02-01T15:33:27;8.90;;;0.88;;
2187;SDS011;1100;52.014;8.540;2023-02-01T15:36:39;6.20;;;0.73;;
2187;SDS011;1100;52.014;8.540;2023-02-01T15:38:43;8.90;;;0.85;;
2187;SDS011;1100;52.014;8.540;2023-02-01T15:46:38;8.98;;;0.80;;
2187;SDS011;1100;52.014;8.540;2023-02-01T15:51:56;8.13;;;0.52;;
2187;SDS011;1100;52.014;8.540;2023-02-01T15:54:27;12.30;;;1.35;;
2187;SDS011;1100;52.014;8.540;2023-02-01T15:57:01;7.60;;;0.70;;
2187;SDS011;1100;52.014;8.540;2023-02-01T15:59:29;7.90;;;0.80;;
2187;SDS011;1100;52.014;8.540;2023-02-01T16:02:00;9.50;;;1.38;;
2187;SDS011;1100;52.014;8.540;2023-02-01T16:04:29;8.63;;;0.90;;
2187;SDS011;1100;52.014;8.540;2023-02-01T16:09:24;13.37;;;1.57;;
2187;SDS011;1100;52.014;8.540;2023-02-01T16:12:00;11.23;;;1.55;;
2187;SDS011;1100;52.014;8.540;2023-02-01T16:14:27;10.77;;;1.88;;
2187;SDS011;1100;52.014;8.540;2023-02-01T16:16:53;11.23;;;2.42;;
2187;SDS011;1100;52.014;8.540;2023-02-01T16:19:20;11.90;;;2.20;;
2187;SDS011;1100;52.014;8.540;2023-02-01T16:21:48;15.07;;;1.55;;
2187;SDS011;1100;52.014;8.540;2023-02-01T16:24:13;8.53;;;1.33;;
2187;SDS011;1100;52.014;8.540;2023-02-01T16:26:39;10.00;;;1.63;;
2187;SDS011;1100;52.014;8.540;2023-02-01T16:29:04;15.03;;;1.37;;
2187;SDS011;1100;52.014;8.540;2023-02-01T16:31:32;13.25;;;1.33;;
2187;SDS011;1100;52.014;8.540;2023-02-01T16:33:59;8.35;;;1.20;;
2187;SDS011;1100;52.014;8.540;2023-02-01T16:36:25;11.83;;;1.40;;
2187;SDS011;1100;52.014;8.540;2023-02-01T16:38:52;12.45;;;1.67;;
2187;SDS011;1100;52.014;8.540;2023-02-01T16:41:18;14.13;;;1.65;;
2187;SDS011;1100;52.014;8.540;2023-02-01T16:43:45;10.50;;;1.20;;
2187;SDS011;1100;52.014;8.540;2023-02-01T16:46:14;11.43;;;1.08;;
2187;SDS011;1100;52.014;8.540;2023-02-01T16:48:42;8.93;;;1.02;;
2187;SDS011;1100;52.014;8.540;2023-02-01T16:51:13;8.20;;;1.17;;
2187;SDS011;1100;52.014;8.540;2023-02-01T16:53:41;11.85;;;1.13;;
2187;SDS011;1100;52.014;8.540;2023-02-01T16:56:15;10.32;;;1.25;;
2187;SDS011;1100;52.014;8.540;2023-02-01T16:58:42;11.98;;;1.35;;
2187;SDS011;1100;52.014;8.540;2023-02-01T17:01:09;15.23;;;2.33;;
2187;SDS011;1100;52.014;8.540;2023-02-01T17:03:35;11.60;;;1.33;;
2187;SDS011;1100;52.014;8.540;2023-02-01T17:06:01;9.80;;;1.50;;
2187;SDS011;1100;52.014;8.540;2023-02-01T17:08:37;6.73;;;1.20;;
2187;SDS011;1100;52.014;8.540;2023-02-01T17:11:06;7.18;;;1.33;;
2187;SDS011;1100;52.014;8.540;2023-02-01T17:13:32;9.05;;;1.25;;
2187;SDS011;1100;52.014;8.540;2023-02-01T17:16:00;13.32;;;2.15;;
2187;SDS011;1100;52.014;8.540;2023-02-01T17:18:31;20.88;;;2.33;;
2187;SDS011;1100;52.014;8.540;2023-02-01T17:20:59;10.83;;;1.20;;
2187;SDS011;1100;52.014;8.540;2023-02-01T17:23:27;9.35;;;1.27;;
2187;SDS011;1100;52.014;8.540;2023-02-01T17:25:53;13.30;;;1.83;;
2187;SDS011;1100;52.014;8.540;2023-02-01T17:28:19;14.45;;;2.13;;
2187;SDS011;1100;52.014;8.540;2023-02-01T17:30:44;12.07;;;1.70;;
2187;SDS011;1100;52.014;8.540;2023-02-01T17:35:50;13.07;;;1.45;;
2187;SDS011;1100;52.014;8.540;2023-02-01T17:38:18;14.07;;;2.00;;
2187;SDS011;1100;52.014;8.540;2023-02-01T17:40:43;13.00;;;1.27;;
2187;SDS011;1100;52.014;8.540;2023-02-01T17:43:11;11.93;;;1.63;;
2187;SDS011;1100;52.014;8.540;2023-02-01T17:45:42;10.23;;;1.08;;
2187;SDS011;1100;52.014;8.540;2023-02-01T17:48:16;11.93;;;1.38;;
2187;SDS011;1100;52.014;8.540;2023-02-01T17:50:43;12.65;;;1.33;;
2187;SDS011;1100;52.014;8.540;2023-02-01T17:53:11;12.63;;;1.60;;
2187;SDS011;1100;52.014;8.540;2023-02-01T17:55:39;10.50;;;1.30;;
2187;SDS011;1100;52.014;8.540;2023-02-01T17:58:09;10.75;;;1.33;;
2187;SDS011;1100;52.014;8.540;2023-02-01T18:00:37;13.48;;;1.40;;
2187;SDS011;1100;52.014;8.540;2023-02-01T18:03:02;16.20;;;1.63;;